sensor_id;sensor_type;location;lat;lon;timestamp;temperature;humidity
52769;DHT22;40471;44.534;18.644;2023-08-08T00:01:47;18.20;99.90
52769;DHT22;40471;44.534;18.644;2023-08-08T00:04:13;17.90;99.90
52769;DHT22;40471;44.534;18.644;2023-08-08T00:06:38;17.80;99.90
52769;DHT22;40471;44.534;18.644;2023-08-08T00:09:04;17.80;99.90
52769;DHT22;40471;44.534;18.644;2023-08-08T00:11:29;17.70;99.90
52769;DHT22;40471;44.534;18.644;2023-08-08T00:13:55;17.60;99.90
52769;DHT22;40471;44.534;18.644;2023-08-08T00:16:21;17.60;99.90
52769;DHT22;40471;44.534;18.644;2023-08-08T00:18:47;17.60;99.90
52769;DHT22;40471;44.534;18.644;2023-08-08T00:21:15;17.60;99.90
52769;DHT22;40471;44.534;18.644;2023-08-08T00:23:40;17.60;99.90
52769;DHT22;40471;44.534;18.644;2023-08-08T00:26:06;17.60;99.90
52769;DHT22;40471;44.534;18.644;2023-08-08T00:28:31;17.70;99.90
52769;DHT22;40471;44.534;18.644;2023-08-08T00:30:57;17.60;99.90
52769;DHT22;40471;44.534;18.644;2023-08-08T00:33:22;17.70;99.90
52769;DHT22;40471;44.534;18.644;2023-08-08T00:35:48;17.60;99.90
52769;DHT22;40471;44.534;18.644;2023-08-08T00:38:14;17.70;99.90
52769;DHT22;40471;44.534;18.644;2023-08-08T00:40:39;17.60;99.90
52769;DHT22;40471;44.534;18.644;2023-08-08T00:43:05;18.10;99.90
52769;DHT22;40471;44.534;18.644;2023-08-08T00:45:31;18.30;99.90
52769;DHT22;40471;44.534;18.644;2023-08-08T00:47:56;17.70;99.90
52769;DHT22;40471;44.534;18.644;2023-08-08T00:50:22;17.70;99.90
52769;DHT22;40471;44.534;18.644;2023-08-08T00:52:48;17.70;99.90
52769;DHT22;40471;44.534;18.644;2023-08-08T00:55:14;17.70;99.90
52769;DHT22;40471;44.534;18.644;2023-08-08T00:57:40;17.70;99.90
52769;DHT22;40471;44.534;18.644;2023-08-08T01:00:07;17.70;99.90
52769;DHT22;40471;44.534;18.644;2023-08-08T01:02:33;16.60;99.90
52769;DHT22;40471;44.534;18.644;2023-08-08T01:04:58;17.70;99.90
52769;DHT22;40471;44.534;18.644;2023-08-08T01:12:32;17.80;99.90
52769;DHT22;40471;44.534;18.644;2023-08-08T01:14:58;17.70;99.90
52769;DHT22;40471;44.534;18.644;2023-08-08T01:17:24;17.70;99.90
52769;DHT22;40471;44.534;18.644;2023-08-08T01:19:50;17.50;99.90
52769;DHT22;40471;44.534;18.644;2023-08-08T01:22:24;17.30;99.90
52769;DHT22;40471;44.534;18.644;2023-08-08T01:24:50;17.20;99.90
52769;DHT22;40471;44.534;18.644;2023-08-08T01:27:17;17.20;99.90
52769;DHT22;40471;44.534;18.644;2023-08-08T01:29:42;17.20;99.90
52769;DHT22;40471;44.534;18.644;2023-08-08T01:32:08;17.20;99.90
52769;DHT22;40471;44.534;18.644;2023-08-08T01:34:36;17.20;99.90
52769;DHT22;40471;44.534;18.644;2023-08-08T01:37:13;17.20;99.90
52769;DHT22;40471;44.534;18.644;2023-08-08T01:39:41;17.30;99.90
52769;DHT22;40471;44.534;18.644;2023-08-08T01:42:07;17.30;99.90
52769;DHT22;40471;44.534;18.644;2023-08-08T01:44:33;17.30;99.90
52769;DHT22;40471;44.534;18.644;2023-08-08T01:47:00;17.20;99.90
52769;DHT22;40471;44.534;18.644;2023-08-08T01:49:26;17.20;99.90
52769;DHT22;40471;44.534;18.644;2023-08-08T01:51:51;17.10;99.90
52769;DHT22;40471;44.534;18.644;2023-08-08T01:54:18;17.10;99.90
52769;DHT22;40471;44.534;18.644;2023-08-08T01:56:43;17.10;99.90
52769;DHT22;40471;44.534;18.644;2023-08-08T01:59:09;17.00;99.90
52769;DHT22;40471;44.534;18.644;2023-08-08T02:01:34;17.00;99.90
52769;DHT22;40471;44.534;18.644;2023-08-08T02:04:00;16.90;99.90
52769;DHT22;40471;44.534;18.644;2023-08-08T02:06:26;16.90;99.90
52769;DHT22;40471;44.534;18.644;2023-08-08T02:08:51;16.90;99.90
52769;DHT22;40471;44.534;18.644;2023-08-08T02:11:17;16.90;99.90
52769;DHT22;40471;44.534;18.644;2023-08-08T02:13:42;16.90;99.90
52769;DHT22;40471;44.534;18.644;2023-08-08T02:16:08;16.00;99.90
52769;DHT22;40471;44.534;18.644;2023-08-08T02:18:34;16.80;99.90
52769;DHT22;40471;44.534;18.644;2023-08-08T02:20:59;16.80;99.90
52769;DHT22;40471;44.534;18.644;2023-08-08T02:23:25;16.90;99.90
52769;DHT22;40471;44.534;18.644;2023-08-08T02:25:51;16.80;99.90
52769;DHT22;40471;44.534;18.644;2023-08-08T02:28:17;16.70;99.90
52769;DHT22;40471;44.534;18.644;2023-08-08T02:30:42;16.70;99.90
52769;DHT22;40471;44.534;18.644;2023-08-08T02:33:08;16.70;99.90
52769;DHT22;40471;44.534;18.644;2023-08-08T02:35:35;16.70;99.90
52769;DHT22;40471;44.534;18.644;2023-08-08T02:38:01;16.10;99.90
52769;DHT22;40471;44.534;18.644;2023-08-08T02:40:27;16.10;99.90
52769;DHT22;40471;44.534;18.644;2023-08-08T02:42:52;16.60;99.90
52769;DHT22;40471;44.534;18.644;2023-08-08T02:45:18;16.50;99.90
52769;DHT22;40471;44.534;18.644;2023-08-08T02:47:43;16.50;99.90
52769;DHT22;40471;44.534;18.644;2023-08-08T02:50:09;16.30;99.90
52769;DHT22;40471;44.534;18.644;2023-08-08T02:52:34;16.30;99.90
52769;DHT22;40471;44.534;18.644;2023-08-08T02:55:00;16.30;99.90
52769;DHT22;40471;44.534;18.644;2023-08-08T02:57:27;16.20;99.90
52769;DHT22;40471;44.534;18.644;2023-08-08T02:59:53;16.20;99.90
52769;DHT22;40471;44.534;18.644;2023-08-08T03:02:18;16.30;99.90
52769;DHT22;40471;44.534;18.644;2023-08-08T03:04:44;16.20;99.90
52769;DHT22;40471;44.534;18.644;2023-08-08T03:07:10;16.20;99.90
52769;DHT22;40471;44.534;18.644;2023-08-08T03:09:35;16.00;99.90
52769;DHT22;40471;44.534;18.644;2023-08-08T03:12:01;16.00;99.90
52769;DHT22;40471;44.534;18.644;2023-08-08T03:14:27;16.00;99.90
52769;DHT22;40471;44.534;18.644;2023-08-08T03:16:52;16.00;99.90
52769;DHT22;40471;44.534;18.644;2023-08-08T03:19:18;16.00;99.90
52769;DHT22;40471;44.534;18.644;2023-08-08T03:21:43;16.00;99.90
52769;DHT22;40471;44.534;18.644;2023-08-08T03:24:09;16.00;99.90
52769;DHT22;40471;44.534;18.644;2023-08-08T03:26:35;15.90;99.90
52769;DHT22;40471;44.534;18.644;2023-08-08T03:29:00;16.00;99.90
52769;DHT22;40471;44.534;18.644;2023-08-08T03:31:26;15.90;99.90
52769;DHT22;40471;44.534;18.644;2023-08-08T03:33:52;15.90;99.90
52769;DHT22;40471;44.534;18.644;2023-08-08T03:36:18;15.80;99.90
52769;DHT22;40471;44.534;18.644;2023-08-08T03:38:43;15.80;99.90
52769;DHT22;40471;44.534;18.644;2023-08-08T03:41:11;16.20;99.90
52769;DHT22;40471;44.534;18.644;2023-08-08T03:43:37;15.80;99.90
52769;DHT22;40471;44.534;18.644;2023-08-08T03:46:03;15.80;99.90
52769;DHT22;40471;44.534;18.644;2023-08-08T03:48:28;15.70;99.90
52769;DHT22;40471;44.534;18.644;2023-08-08T03:50:54;15.80;99.90
52769;DHT22;40471;44.534;18.644;2023-08-08T03:53:19;15.80;99.90
52769;DHT22;40471;44.534;18.644;2023-08-08T03:55:45;15.90;99.90
52769;DHT22;40471;44.534;18.644;2023-08-08T03:58:11;15.90;99.90
52769;DHT22;40471;44.534;18.644;2023-08-08T04:00:36;16.00;99.90
52769;DHT22;40471;44.534;18.644;2023-08-08T04:03:03;16.00;99.90
52769;DHT22;40471;44.534;18.644;2023-08-08T04:05:28;16.10;99.90
52769;DHT22;40471;44.534;18.644;2023-08-08T04:07:54;16.20;99.90
52769;DHT22;40471;44.534;18.644;2023-08-08T04:10:19;15.60;99.90
52769;DHT22;40471;44.534;18.644;2023-08-08T04:12:45;16.30;99.90
52769;DHT22;40471;44.534;18.644;2023-08-08T04:15:11;16.30;99.90
52769;DHT22;40471;44.534;18.644;2023-08-08T04:17:36;16.40;99.90
52769;DHT22;40471;44.534;18.644;2023-08-08T04:20:02;16.40;99.90
52769;DHT22;40471;44.534;18.644;2023-08-08T04:22:28;16.40;99.90
52769;DHT22;40471;44.534;18.644;2023-08-08T04:24:54;16.40;99.90
52769;DHT22;40471;44.534;18.644;2023-08-08T04:27:19;16.50;99.90
52769;DHT22;40471;44.534;18.644;2023-08-08T04:29:45;16.50;99.90
52769;DHT22;40471;44.534;18.644;2023-08-08T04:32:10;16.60;99.90
52769;DHT22;40471;44.534;18.644;2023-08-08T04:34:36;16.80;99.90
52769;DHT22;40471;44.534;18.644;2023-08-08T04:37:02;16.90;99.90
52769;DHT22;40471;44.534;18.644;2023-08-08T04:39:27;17.10;99.90
52769;DHT22;40471;44.534;18.644;2023-08-08T04:41:53;17.20;99.90
52769;DHT22;40471;44.534;18.644;2023-08-08T04:44:19;17.40;99.90
52769;DHT22;40471;44.534;18.644;2023-08-08T04:46:44;17.90;99.90
52769;DHT22;40471;44.534;18.644;2023-08-08T04:49:10;20.10;99.90
52769;DHT22;40471;44.534;18.644;2023-08-08T04:51:35;22.50;99.90
52769;DHT22;40471;44.534;18.644;2023-08-08T04:54:01;23.80;99.90
52769;DHT22;40471;44.534;18.644;2023-08-08T04:56:27;25.00;99.90
52769;DHT22;40471;44.534;18.644;2023-08-08T04:58:53;25.30;99.90
52769;DHT22;40471;44.534;18.644;2023-08-08T05:01:19;24.20;99.90
52769;DHT22;40471;44.534;18.644;2023-08-08T05:03:45;23.00;99.90
52769;DHT22;40471;44.534;18.644;2023-08-08T05:06:11;22.40;99.90
52769;DHT22;40471;44.534;18.644;2023-08-08T05:08:37;22.10;99.90
52769;DHT22;40471;44.534;18.644;2023-08-08T05:11:03;21.80;99.90
52769;DHT22;40471;44.534;18.644;2023-08-08T05:13:29;21.70;99.90
52769;DHT22;40471;44.534;18.644;2023-08-08T05:15:55;22.90;99.90
52769;DHT22;40471;44.534;18.644;2023-08-08T05:18:20;25.40;99.90
52769;DHT22;40471;44.534;18.644;2023-08-08T05:20:46;26.30;99.90
52769;DHT22;40471;44.534;18.644;2023-08-08T05:23:12;25.30;99.90
52769;DHT22;40471;44.534;18.644;2023-08-08T05:25:37;24.50;99.90
52769;DHT22;40471;44.534;18.644;2023-08-08T05:28:03;23.80;99.90
52769;DHT22;40471;44.534;18.644;2023-08-08T05:30:28;23.20;99.90
52769;DHT22;40471;44.534;18.644;2023-08-08T05:32:54;22.60;99.90
52769;DHT22;40471;44.534;18.644;2023-08-08T05:35:20;22.10;99.90
52769;DHT22;40471;44.534;18.644;2023-08-08T05:37:45;21.80;99.90
52769;DHT22;40471;44.534;18.644;2023-08-08T05:40:11;21.50;99.90
52769;DHT22;40471;44.534;18.644;2023-08-08T05:42:37;21.60;99.90
52769;DHT22;40471;44.534;18.644;2023-08-08T05:45:03;21.00;99.90
52769;DHT22;40471;44.534;18.644;2023-08-08T05:47:28;20.70;99.90
52769;DHT22;40471;44.534;18.644;2023-08-08T05:49:54;20.70;99.90
52769;DHT22;40471;44.534;18.644;2023-08-08T05:52:20;20.60;99.90
52769;DHT22;40471;44.534;18.644;2023-08-08T05:54:46;20.50;99.90
52769;DHT22;40471;44.534;18.644;2023-08-08T05:57:12;20.20;99.90
52769;DHT22;40471;44.534;18.644;2023-08-08T05:59:37;20.40;99.90
52769;DHT22;40471;44.534;18.644;2023-08-08T06:02:03;20.10;99.90
52769;DHT22;40471;44.534;18.644;2023-08-08T06:04:29;21.40;99.90
52769;DHT22;40471;44.534;18.644;2023-08-08T06:06:54;20.30;99.90
52769;DHT22;40471;44.534;18.644;2023-08-08T06:09:20;20.30;99.90
52769;DHT22;40471;44.534;18.644;2023-08-08T06:11:45;20.40;99.90
52769;DHT22;40471;44.534;18.644;2023-08-08T06:14:11;20.20;99.90
52769;DHT22;40471;44.534;18.644;2023-08-08T06:16:36;19.90;99.90
52769;DHT22;40471;44.534;18.644;2023-08-08T06:19:02;19.90;99.90
52769;DHT22;40471;44.534;18.644;2023-08-08T06:21:28;20.60;99.90
52769;DHT22;40471;44.534;18.644;2023-08-08T06:23:53;20.10;99.90
52769;DHT22;40471;44.534;18.644;2023-08-08T06:26:20;20.20;99.90
52769;DHT22;40471;44.534;18.644;2023-08-08T06:28:46;20.10;99.90
52769;DHT22;40471;44.534;18.644;2023-08-08T06:31:13;20.30;99.90
52769;DHT22;40471;44.534;18.644;2023-08-08T06:33:38;20.30;99.90
52769;DHT22;40471;44.534;18.644;2023-08-08T06:36:04;20.30;99.90
52769;DHT22;40471;44.534;18.644;2023-08-08T06:38:30;20.30;99.90
52769;DHT22;40471;44.534;18.644;2023-08-08T06:41:02;20.80;99.90
52769;DHT22;40471;44.534;18.644;2023-08-08T06:43:28;20.70;99.90
52769;DHT22;40471;44.534;18.644;2023-08-08T06:45:54;20.60;99.90
52769;DHT22;40471;44.534;18.644;2023-08-08T06:48:21;21.20;99.90
52769;DHT22;40471;44.534;18.644;2023-08-08T06:50:46;21.70;99.90
52769;DHT22;40471;44.534;18.644;2023-08-08T06:53:12;21.40;99.90
52769;DHT22;40471;44.534;18.644;2023-08-08T06:55:37;21.50;99.90
52769;DHT22;40471;44.534;18.644;2023-08-08T06:58:03;21.90;99.90
52769;DHT22;40471;44.534;18.644;2023-08-08T07:00:29;22.40;99.90
52769;DHT22;40471;44.534;18.644;2023-08-08T07:02:55;22.20;99.90
52769;DHT22;40471;44.534;18.644;2023-08-08T07:05:20;22.80;99.90
52769;DHT22;40471;44.534;18.644;2023-08-08T07:07:49;22.70;99.90
52769;DHT22;40471;44.534;18.644;2023-08-08T07:10:15;22.70;99.90
52769;DHT22;40471;44.534;18.644;2023-08-08T07:12:41;22.80;99.90
52769;DHT22;40471;44.534;18.644;2023-08-08T07:15:07;22.70;99.90
52769;DHT22;40471;44.534;18.644;2023-08-08T07:17:33;23.60;99.90
52769;DHT22;40471;44.534;18.644;2023-08-08T07:19:58;24.80;99.90
52769;DHT22;40471;44.534;18.644;2023-08-08T07:22:24;26.30;99.90
52769;DHT22;40471;44.534;18.644;2023-08-08T07:24:50;27.10;99.90
52769;DHT22;40471;44.534;18.644;2023-08-08T07:27:15;28.50;98.20
52769;DHT22;40471;44.534;18.644;2023-08-08T07:29:41;30.70;97.80
52769;DHT22;40471;44.534;18.644;2023-08-08T07:32:06;31.50;89.00
52769;DHT22;40471;44.534;18.644;2023-08-08T07:34:32;33.90;83.30
52769;DHT22;40471;44.534;18.644;2023-08-08T07:36:58;35.20;70.20
52769;DHT22;40471;44.534;18.644;2023-08-08T07:39:24;36.80;68.60
52769;DHT22;40471;44.534;18.644;2023-08-08T07:41:50;36.60;63.70
52769;DHT22;40471;44.534;18.644;2023-08-08T07:44:16;36.90;61.20
52769;DHT22;40471;44.534;18.644;2023-08-08T07:46:42;37.10;60.90
52769;DHT22;40471;44.534;18.644;2023-08-08T07:49:07;37.80;60.80
52769;DHT22;40471;44.534;18.644;2023-08-08T07:51:35;38.20;56.70
52769;DHT22;40471;44.534;18.644;2023-08-08T07:54:00;38.50;57.90
52769;DHT22;40471;44.534;18.644;2023-08-08T07:56:26;38.30;56.70
52769;DHT22;40471;44.534;18.644;2023-08-08T07:58:51;38.10;53.80
52769;DHT22;40471;44.534;18.644;2023-08-08T08:01:17;37.80;52.90
52769;DHT22;40471;44.534;18.644;2023-08-08T08:03:43;36.70;52.20
52769;DHT22;40471;44.534;18.644;2023-08-08T08:06:09;35.50;53.90
52769;DHT22;40471;44.534;18.644;2023-08-08T08:08:35;34.80;54.50
52769;DHT22;40471;44.534;18.644;2023-08-08T08:11:01;35.10;54.10
52769;DHT22;40471;44.534;18.644;2023-08-08T08:13:27;35.10;52.90
52769;DHT22;40471;44.534;18.644;2023-08-08T08:15:53;34.90;52.70
52769;DHT22;40471;44.534;18.644;2023-08-08T08:18:18;34.30;52.60
52769;DHT22;40471;44.534;18.644;2023-08-08T08:20:45;34.70;52.40
52769;DHT22;40471;44.534;18.644;2023-08-08T08:23:11;34.40;52.70
52769;DHT22;40471;44.534;18.644;2023-08-08T08:25:37;34.00;54.00
52769;DHT22;40471;44.534;18.644;2023-08-08T08:28:02;34.00;55.20
52769;DHT22;40471;44.534;18.644;2023-08-08T08:30:28;34.30;53.70
52769;DHT22;40471;44.534;18.644;2023-08-08T08:32:54;34.20;54.60
52769;DHT22;40471;44.534;18.644;2023-08-08T08:35:19;34.40;55.20
52769;DHT22;40471;44.534;18.644;2023-08-08T08:37:46;34.80;53.60
52769;DHT22;40471;44.534;18.644;2023-08-08T08:40:11;34.60;53.90
52769;DHT22;40471;44.534;18.644;2023-08-08T08:42:37;34.60;54.60
52769;DHT22;40471;44.534;18.644;2023-08-08T08:45:04;34.70;55.10
52769;DHT22;40471;44.534;18.644;2023-08-08T08:47:31;34.80;52.30
52769;DHT22;40471;44.534;18.644;2023-08-08T08:49:57;35.00;54.20
52769;DHT22;40471;44.534;18.644;2023-08-08T08:52:23;35.30;52.10
52769;DHT22;40471;44.534;18.644;2023-08-08T08:54:52;35.20;52.30
52769;DHT22;40471;44.534;18.644;2023-08-08T08:57:20;35.30;52.20
52769;DHT22;40471;44.534;18.644;2023-08-08T08:59:46;35.40;52.20
52769;DHT22;40471;44.534;18.644;2023-08-08T09:02:11;35.50;52.00
52769;DHT22;40471;44.534;18.644;2023-08-08T09:04:37;35.70;52.00
52769;DHT22;40471;44.534;18.644;2023-08-08T09:07:05;35.80;52.10
52769;DHT22;40471;44.534;18.644;2023-08-08T09:09:31;35.90;51.00
52769;DHT22;40471;44.534;18.644;2023-08-08T09:11:57;36.10;51.20
52769;DHT22;40471;44.534;18.644;2023-08-08T09:14:23;36.20;50.40
52769;DHT22;40471;44.534;18.644;2023-08-08T09:16:49;36.20;49.40
52769;DHT22;40471;44.534;18.644;2023-08-08T09:19:16;36.00;50.10
52769;DHT22;40471;44.534;18.644;2023-08-08T09:21:45;36.10;51.70
52769;DHT22;40471;44.534;18.644;2023-08-08T09:24:11;36.30;48.80
52769;DHT22;40471;44.534;18.644;2023-08-08T09:26:38;36.20;49.20
52769;DHT22;40471;44.534;18.644;2023-08-08T09:29:04;35.60;48.10
52769;DHT22;40471;44.534;18.644;2023-08-08T09:31:30;35.40;48.60
52769;DHT22;40471;44.534;18.644;2023-08-08T09:33:59;35.30;48.50
52769;DHT22;40471;44.534;18.644;2023-08-08T09:36:25;35.50;49.90
52769;DHT22;40471;44.534;18.644;2023-08-08T09:38:51;36.00;49.10
52769;DHT22;40471;44.534;18.644;2023-08-08T09:41:17;36.50;47.40
52769;DHT22;40471;44.534;18.644;2023-08-08T09:43:43;36.30;46.70
52769;DHT22;40471;44.534;18.644;2023-08-08T09:46:09;36.10;48.40
52769;DHT22;40471;44.534;18.644;2023-08-08T09:48:35;36.30;46.70
52769;DHT22;40471;44.534;18.644;2023-08-08T09:51:01;36.30;47.40
52769;DHT22;40471;44.534;18.644;2023-08-08T09:53:27;35.70;48.20
52769;DHT22;40471;44.534;18.644;2023-08-08T09:55:56;35.70;48.40
52769;DHT22;40471;44.534;18.644;2023-08-08T09:58:22;36.00;47.60
52769;DHT22;40471;44.534;18.644;2023-08-08T10:00:50;35.90;47.70
52769;DHT22;40471;44.534;18.644;2023-08-08T10:03:16;35.70;47.20
52769;DHT22;40471;44.534;18.644;2023-08-08T10:05:43;36.10;47.50
52769;DHT22;40471;44.534;18.644;2023-08-08T10:08:08;36.50;47.20
52769;DHT22;40471;44.534;18.644;2023-08-08T10:10:34;36.50;46.50
52769;DHT22;40471;44.534;18.644;2023-08-08T10:13:00;36.40;47.40
52769;DHT22;40471;44.534;18.644;2023-08-08T10:15:26;35.40;47.10
52769;DHT22;40471;44.534;18.644;2023-08-08T10:17:53;34.80;49.60
52769;DHT22;40471;44.534;18.644;2023-08-08T10:20:19;34.00;48.50
52769;DHT22;40471;44.534;18.644;2023-08-08T10:22:46;33.20;48.60
52769;DHT22;40471;44.534;18.644;2023-08-08T10:25:25;32.60;49.50
52769;DHT22;40471;44.534;18.644;2023-08-08T10:28:11;32.20;49.90
52769;DHT22;40471;44.534;18.644;2023-08-08T10:30:45;31.80;50.40
52769;DHT22;40471;44.534;18.644;2023-08-08T10:33:27;31.10;50.70
52769;DHT22;40471;44.534;18.644;2023-08-08T10:38:25;30.30;51.50
52769;DHT22;40471;44.534;18.644;2023-08-08T10:40:57;30.00;52.10
52769;DHT22;40471;44.534;18.644;2023-08-08T10:43:27;29.80;53.40
52769;DHT22;40471;44.534;18.644;2023-08-08T10:45:56;29.60;53.00
52769;DHT22;40471;44.534;18.644;2023-08-08T10:54:51;30.00;57.00
52769;DHT22;40471;44.534;18.644;2023-08-08T10:57:18;31.20;53.00
52769;DHT22;40471;44.534;18.644;2023-08-08T10:59:44;32.10;54.70
52769;DHT22;40471;44.534;18.644;2023-08-08T11:02:10;32.80;53.50
52769;DHT22;40471;44.534;18.644;2023-08-08T11:04:35;33.30;53.90
52769;DHT22;40471;44.534;18.644;2023-08-08T11:07:01;33.90;53.40
52769;DHT22;40471;44.534;18.644;2023-08-08T11:09:27;34.20;51.90
52769;DHT22;40471;44.534;18.644;2023-08-08T11:11:52;33.50;50.80
52769;DHT22;40471;44.534;18.644;2023-08-08T11:14:19;32.70;50.90
52769;DHT22;40471;44.534;18.644;2023-08-08T11:16:46;31.70;51.40
52769;DHT22;40471;44.534;18.644;2023-08-08T11:19:12;31.10;51.80
52769;DHT22;40471;44.534;18.644;2023-08-08T11:21:42;30.50;52.50
52769;DHT22;40471;44.534;18.644;2023-08-08T11:24:08;30.80;54.70
52769;DHT22;40471;44.534;18.644;2023-08-08T11:26:34;31.50;53.70
52769;DHT22;40471;44.534;18.644;2023-08-08T11:29:00;32.20;52.80
52769;DHT22;40471;44.534;18.644;2023-08-08T11:31:27;32.80;51.30
52769;DHT22;40471;44.534;18.644;2023-08-08T11:33:53;33.00;50.90
52769;DHT22;40471;44.534;18.644;2023-08-08T11:36:20;33.00;50.40
52769;DHT22;40471;44.534;18.644;2023-08-08T11:38:45;33.00;51.20
52769;DHT22;40471;44.534;18.644;2023-08-08T11:41:15;33.50;50.10
52769;DHT22;40471;44.534;18.644;2023-08-08T11:43:41;33.60;50.00
52769;DHT22;40471;44.534;18.644;2023-08-08T11:46:13;34.00;48.90
52769;DHT22;40471;44.534;18.644;2023-08-08T11:48:39;34.50;48.60
52769;DHT22;40471;44.534;18.644;2023-08-08T11:51:06;34.30;49.70
52769;DHT22;40471;44.534;18.644;2023-08-08T11:53:32;34.30;50.20
52769;DHT22;40471;44.534;18.644;2023-08-08T11:56:01;34.50;48.00
52769;DHT22;40471;44.534;18.644;2023-08-08T11:58:29;34.50;48.00
52769;DHT22;40471;44.534;18.644;2023-08-08T12:00:55;34.60;50.20
52769;DHT22;40471;44.534;18.644;2023-08-08T12:03:21;34.70;49.60
52769;DHT22;40471;44.534;18.644;2023-08-08T12:05:47;34.40;50.40
52769;DHT22;40471;44.534;18.644;2023-08-08T12:08:13;34.70;50.80
52769;DHT22;40471;44.534;18.644;2023-08-08T12:10:47;34.80;50.20
52769;DHT22;40471;44.534;18.644;2023-08-08T12:13:12;34.10;49.40
52769;DHT22;40471;44.534;18.644;2023-08-08T12:15:38;33.30;49.50
52769;DHT22;40471;44.534;18.644;2023-08-08T12:18:03;32.40;51.40
52769;DHT22;40471;44.534;18.644;2023-08-08T12:20:30;31.90;51.00
52769;DHT22;40471;44.534;18.644;2023-08-08T12:22:59;31.60;52.50
52769;DHT22;40471;44.534;18.644;2023-08-08T12:25:25;31.30;51.40
52769;DHT22;40471;44.534;18.644;2023-08-08T12:27:51;30.90;51.10
52769;DHT22;40471;44.534;18.644;2023-08-08T12:30:16;30.60;51.70
52769;DHT22;40471;44.534;18.644;2023-08-08T12:32:42;30.10;51.70
52769;DHT22;40471;44.534;18.644;2023-08-08T12:35:07;29.60;52.70
52769;DHT22;40471;44.534;18.644;2023-08-08T12:37:33;29.40;53.50
52769;DHT22;40471;44.534;18.644;2023-08-08T12:39:59;29.10;53.70
52769;DHT22;40471;44.534;18.644;2023-08-08T12:42:25;28.60;54.40
52769;DHT22;40471;44.534;18.644;2023-08-08T12:44:50;27.80;54.60
52769;DHT22;40471;44.534;18.644;2023-08-08T12:47:19;27.60;56.00
52769;DHT22;40471;44.534;18.644;2023-08-08T12:49:46;27.50;56.50
52769;DHT22;40471;44.534;18.644;2023-08-08T12:52:11;27.40;56.80
52769;DHT22;40471;44.534;18.644;2023-08-08T12:54:37;27.40;57.50
52769;DHT22;40471;44.534;18.644;2023-08-08T12:57:03;27.50;56.80
52769;DHT22;40471;44.534;18.644;2023-08-08T12:59:29;27.60;57.50
52769;DHT22;40471;44.534;18.644;2023-08-08T13:01:54;27.80;56.70
52769;DHT22;40471;44.534;18.644;2023-08-08T13:04:20;28.20;55.90
52769;DHT22;40471;44.534;18.644;2023-08-08T13:06:47;28.50;56.00
52769;DHT22;40471;44.534;18.644;2023-08-08T13:09:12;29.00;55.70
52769;DHT22;40471;44.534;18.644;2023-08-08T13:11:39;29.00;57.30
52769;DHT22;40471;44.534;18.644;2023-08-08T13:14:04;29.40;55.90
52769;DHT22;40471;44.534;18.644;2023-08-08T13:16:30;29.80;55.20
52769;DHT22;40471;44.534;18.644;2023-08-08T13:18:55;30.00;53.70
52769;DHT22;40471;44.534;18.644;2023-08-08T13:21:21;30.20;54.80
52769;DHT22;40471;44.534;18.644;2023-08-08T13:23:46;30.30;54.00
52769;DHT22;40471;44.534;18.644;2023-08-08T13:26:12;29.90;54.10
52769;DHT22;40471;44.534;18.644;2023-08-08T13:28:37;29.40;55.50
52769;DHT22;40471;44.534;18.644;2023-08-08T13:31:04;30.00;54.60
52769;DHT22;40471;44.534;18.644;2023-08-08T13:33:31;30.30;53.10
52769;DHT22;40471;44.534;18.644;2023-08-08T13:35:57;30.70;54.00
52769;DHT22;40471;44.534;18.644;2023-08-08T13:38:23;30.30;52.80
52769;DHT22;40471;44.534;18.644;2023-08-08T13:40:49;29.70;53.00
52769;DHT22;40471;44.534;18.644;2023-08-08T13:43:15;29.30;52.90
52769;DHT22;40471;44.534;18.644;2023-08-08T13:45:41;29.00;53.90
52769;DHT22;40471;44.534;18.644;2023-08-08T13:48:06;28.90;54.50
52769;DHT22;40471;44.534;18.644;2023-08-08T13:50:32;29.00;54.70
52769;DHT22;40471;44.534;18.644;2023-08-08T13:52:57;29.30;53.50
52769;DHT22;40471;44.534;18.644;2023-08-08T13:55:23;29.20;53.80
52769;DHT22;40471;44.534;18.644;2023-08-08T13:57:48;29.00;54.10
52769;DHT22;40471;44.534;18.644;2023-08-08T14:00:14;28.60;54.80
52769;DHT22;40471;44.534;18.644;2023-08-08T14:02:40;28.00;55.50
52769;DHT22;40471;44.534;18.644;2023-08-08T14:05:05;27.50;56.50
52769;DHT22;40471;44.534;18.644;2023-08-08T14:07:34;27.00;57.10
52769;DHT22;40471;44.534;18.644;2023-08-08T14:10:00;26.90;57.70
52769;DHT22;40471;44.534;18.644;2023-08-08T14:12:26;27.10;57.10
52769;DHT22;40471;44.534;18.644;2023-08-08T14:14:51;27.20;57.30
52769;DHT22;40471;44.534;18.644;2023-08-08T14:17:17;27.20;57.50
52769;DHT22;40471;44.534;18.644;2023-08-08T14:19:42;27.20;59.90
52769;DHT22;40471;44.534;18.644;2023-08-08T14:22:08;27.20;58.40
52769;DHT22;40471;44.534;18.644;2023-08-08T14:24:33;27.20;58.90
52769;DHT22;40471;44.534;18.644;2023-08-08T14:26:59;27.40;58.30
52769;DHT22;40471;44.534;18.644;2023-08-08T14:29:25;27.60;58.50
52769;DHT22;40471;44.534;18.644;2023-08-08T14:31:50;27.70;57.30
52769;DHT22;40471;44.534;18.644;2023-08-08T14:34:16;27.60;57.50
52769;DHT22;40471;44.534;18.644;2023-08-08T14:36:41;27.50;57.40
52769;DHT22;40471;44.534;18.644;2023-08-08T14:39:07;27.40;58.10
52769;DHT22;40471;44.534;18.644;2023-08-08T14:41:33;27.50;58.20
52769;DHT22;40471;44.534;18.644;2023-08-08T14:43:58;27.50;58.80
52769;DHT22;40471;44.534;18.644;2023-08-08T14:46:24;27.40;57.80
52769;DHT22;40471;44.534;18.644;2023-08-08T14:48:49;27.30;57.10
52769;DHT22;40471;44.534;18.644;2023-08-08T14:51:15;27.20;58.20
52769;DHT22;40471;44.534;18.644;2023-08-08T14:53:42;27.20;57.30
52769;DHT22;40471;44.534;18.644;2023-08-08T14:56:08;27.40;57.30
52769;DHT22;40471;44.534;18.644;2023-08-08T14:58:34;27.40;58.00
52769;DHT22;40471;44.534;18.644;2023-08-08T15:01:00;27.20;57.30
52769;DHT22;40471;44.534;18.644;2023-08-08T15:03:26;26.90;57.60
52769;DHT22;40471;44.534;18.644;2023-08-08T15:05:51;26.60;58.20
52769;DHT22;40471;44.534;18.644;2023-08-08T15:08:17;26.40;58.90
52769;DHT22;40471;44.534;18.644;2023-08-08T15:10:43;26.30;58.80
52769;DHT22;40471;44.534;18.644;2023-08-08T15:13:09;26.00;59.10
52769;DHT22;40471;44.534;18.644;2023-08-08T15:15:35;26.00;60.10
52769;DHT22;40471;44.534;18.644;2023-08-08T15:18:00;25.90;59.50
52769;DHT22;40471;44.534;18.644;2023-08-08T15:20:26;26.00;59.70
52769;DHT22;40471;44.534;18.644;2023-08-08T15:22:51;26.00;58.70